sensor_id;sensor_type;location;lat;lon;timestamp;pressure;altitude;pressure_sealevel;temperature;humidity
9257;BME280;4665;51.368;6.782;2023-06-10T00:01:57;101077.94;;;20.58;100.00
9257;BME280;4665;51.368;6.782;2023-06-10T00:04:25;101068.78;;;20.52;100.00
9257;BME280;4665;51.368;6.782;2023-06-10T00:06:51;101064.44;;;20.45;100.00
9257;BME280;4665;51.368;6.782;2023-06-10T00:09:16;101074.41;;;20.44;100.00
9257;BME280;4665;51.368;6.782;2023-06-10T00:11:44;101076.09;;;20.38;100.00
9257;BME280;4665;51.368;6.782;2023-06-10T00:14:10;101068.84;;;20.32;100.00
9257;BME280;4665;51.368;6.782;2023-06-10T00:16:35;101066.94;;;20.33;100.00
9257;BME280;4665;51.368;6.782;2023-06-10T00:19:03;101065.94;;;20.27;100.00
9257;BME280;4665;51.368;6.782;2023-06-10T00:21:30;101083.00;;;20.28;100.00
9257;BME280;4665;51.368;6.782;2023-06-10T00:23:56;101076.13;;;20.25;100.00
9257;BME280;4665;51.368;6.782;2023-06-10T00:26:22;101076.34;;;20.24;100.00
9257;BME280;4665;51.368;6.782;2023-06-10T00:28:48;101066.38;;;20.17;100.00
9257;BME280;4665;51.368;6.782;2023-06-10T00:31:13;101057.03;;;20.13;100.00
9257;BME280;4665;51.368;6.782;2023-06-10T00:33:39;101069.50;;;20.14;100.00
9257;BME280;4665;51.368;6.782;2023-06-10T00:36:04;101079.09;;;20.10;100.00
9257;BME280;4665;51.368;6.782;2023-06-10T00:38:30;101083.44;;;20.05;100.00
9257;BME280;4665;51.368;6.782;2023-06-10T00:40:57;101079.72;;;19.99;100.00
9257;BME280;4665;51.368;6.782;2023-06-10T00:43:22;101074.75;;;19.89;100.00
9257;BME280;4665;51.368;6.782;2023-06-10T00:45:48;101083.88;;;19.88;100.00
9257;BME280;4665;51.368;6.782;2023-06-10T00:48:16;101084.50;;;19.84;100.00
9257;BME280;4665;51.368;6.782;2023-06-10T00:50:42;101072.66;;;19.78;100.00
9257;BME280;4665;51.368;6.782;2023-06-10T00:53:09;101079.50;;;19.74;100.00
9257;BME280;4665;51.368;6.782;2023-06-10T00:55:38;101075.78;;;19.68;100.00
9257;BME280;4665;51.368;6.782;2023-06-10T00:58:04;101084.47;;;19.64;100.00
9257;BME280;4665;51.368;6.782;2023-06-10T01:00:29;101085.50;;;19.63;100.00
9257;BME280;4665;51.368;6.782;2023-06-10T01:02:55;101081.97;;;19.55;100.00
9257;BME280;4665;51.368;6.782;2023-06-10T01:05:21;101088.19;;;19.56;100.00
9257;BME280;4665;51.368;6.782;2023-06-10T01:08:09;101088.63;;;19.53;100.00
9257;BME280;4665;51.368;6.782;2023-06-10T01:10:49;101079.47;;;19.47;100.00
9257;BME280;4665;51.368;6.782;2023-06-10T01:13:15;101083.44;;;19.45;100.00
9257;BME280;4665;51.368;6.782;2023-06-10T01:15:42;101070.09;;;19.37;100.00
9257;BME280;4665;51.368;6.782;2023-06-10T01:18:10;101086.13;;;19.38;100.00
9257;BME280;4665;51.368;6.782;2023-06-10T01:20:41;101085.06;;;19.32;100.00
9257;BME280;4665;51.368;6.782;2023-06-10T01:23:09;101087.53;;;19.27;100.00
9257;BME280;4665;51.368;6.782;2023-06-10T01:25:45;101084.00;;;19.27;100.00
9257;BME280;4665;51.368;6.782;2023-06-10T01:33:12;101087.53;;;19.21;100.00
9257;BME280;4665;51.368;6.782;2023-06-10T01:35:43;101089.41;;;19.20;100.00
9257;BME280;4665;51.368;6.782;2023-06-10T01:38:10;101079.00;;;19.17;100.00
9257;BME280;4665;51.368;6.782;2023-06-10T01:40:36;101085.25;;;19.18;100.00
9257;BME280;4665;51.368;6.782;2023-06-10T01:43:02;101093.53;;;19.16;100.00
9257;BME280;4665;51.368;6.782;2023-06-10T01:45:27;101084.59;;;19.16;100.00
9257;BME280;4665;51.368;6.782;2023-06-10T01:47:53;101086.69;;;19.13;100.00
9257;BME280;4665;51.368;6.782;2023-06-10T01:50:18;101089.38;;;19.13;100.00
9257;BME280;4665;51.368;6.782;2023-06-10T01:52:45;101074.41;;;19.11;100.00
9257;BME280;4665;51.368;6.782;2023-06-10T01:55:10;101083.94;;;19.07;100.00
9257;BME280;4665;51.368;6.782;2023-06-10T01:57:36;101084.59;;;19.09;100.00
9257;BME280;4665;51.368;6.782;2023-06-10T02:00:01;101091.03;;;19.08;100.00
9257;BME280;4665;51.368;6.782;2023-06-10T02:02:28;101094.38;;;19.10;100.00
9257;BME280;4665;51.368;6.782;2023-06-10T02:04:53;101085.38;;;19.03;100.00
9257;BME280;4665;51.368;6.782;2023-06-10T02:07:19;101093.28;;;19.04;100.00
9257;BME280;4665;51.368;6.782;2023-06-10T02:09:44;101088.50;;;19.00;100.00
9257;BME280;4665;51.368;6.782;2023-06-10T02:12:10;101089.13;;;19.02;100.00
9257;BME280;4665;51.368;6.782;2023-06-10T02:14:35;101097.22;;;19.02;100.00
9257;BME280;4665;51.368;6.782;2023-06-10T02:17:01;101092.44;;;18.97;100.00
9257;BME280;4665;51.368;6.782;2023-06-10T02:19:26;101084.94;;;18.92;100.00
9257;BME280;4665;51.368;6.782;2023-06-10T02:21:52;101092.63;;;18.96;100.00
9257;BME280;4665;51.368;6.782;2023-06-10T02:24:18;101094.31;;;18.97;100.00
9257;BME280;4665;51.368;6.782;2023-06-10T02:26:46;101094.28;;;18.90;100.00
9257;BME280;4665;51.368;6.782;2023-06-10T02:29:13;101091.56;;;18.83;100.00
9257;BME280;4665;51.368;6.782;2023-06-10T02:31:39;101094.88;;;18.85;100.00
9257;BME280;4665;51.368;6.782;2023-06-10T02:34:04;101102.53;;;18.82;100.00
9257;BME280;4665;51.368;6.782;2023-06-10T02:36:30;101101.53;;;18.83;100.00
9257;BME280;4665;51.368;6.782;2023-06-10T02:38:56;101100.47;;;18.84;100.00
9257;BME280;4665;51.368;6.782;2023-06-10T02:41:24;101099.22;;;18.80;100.00
9257;BME280;4665;51.368;6.782;2023-06-10T02:43:50;101093.44;;;18.83;100.00
9257;BME280;4665;51.368;6.782;2023-06-10T02:46:23;101091.13;;;18.80;100.00
9257;BME280;4665;51.368;6.782;2023-06-10T02:48:49;101096.13;;;18.83;100.00
9257;BME280;4665;51.368;6.782;2023-06-10T02:51:17;101096.31;;;18.81;100.00
9257;BME280;4665;51.368;6.782;2023-06-10T02:53:42;101099.03;;;18.81;100.00
9257;BME280;4665;51.368;6.782;2023-06-10T02:56:08;101089.66;;;18.77;100.00
9257;BME280;4665;51.368;6.782;2023-06-10T02:58:33;101102.13;;;18.78;100.00
9257;BME280;4665;51.368;6.782;2023-06-10T03:00:59;101093.38;;;18.76;100.00
9257;BME280;4665;51.368;6.782;2023-06-10T03:03:24;101095.44;;;18.74;100.00
9257;BME280;4665;51.368;6.782;2023-06-10T03:05:50;101092.09;;;18.72;100.00
9257;BME280;4665;51.368;6.782;2023-06-10T03:08:16;101087.31;;;18.67;100.00
9257;BME280;4665;51.368;6.782;2023-06-10T03:10:41;101087.53;;;18.66;100.00
9257;BME280;4665;51.368;6.782;2023-06-10T03:13:07;101096.22;;;18.61;100.00
9257;BME280;4665;51.368;6.782;2023-06-10T03:15:32;101094.31;;;18.55;100.00
9257;BME280;4665;51.368;6.782;2023-06-10T03:18:01;101090.09;;;18.46;100.00
9257;BME280;4665;51.368;6.782;2023-06-10T03:20:29;101099.84;;;18.47;100.00
9257;BME280;4665;51.368;6.782;2023-06-10T03:22:55;101108.53;;;18.42;100.00
9257;BME280;4665;51.368;6.782;2023-06-10T03:25:20;101106.44;;;18.38;100.00
9257;BME280;4665;51.368;6.782;2023-06-10T03:27:46;101105.38;;;18.32;100.00
9257;BME280;4665;51.368;6.782;2023-06-10T03:30:12;101110.59;;;18.34;100.00
9257;BME280;4665;51.368;6.782;2023-06-10T03:32:38;101133.38;;;18.31;100.00
9257;BME280;4665;51.368;6.782;2023-06-10T03:35:04;101125.28;;;18.31;100.00
9257;BME280;4665;51.368;6.782;2023-06-10T03:37:30;101116.31;;;18.24;100.00
9257;BME280;4665;51.368;6.782;2023-06-10T03:39:55;101123.38;;;18.25;100.00
9257;BME280;4665;51.368;6.782;2023-06-10T03:42:21;101122.72;;;18.23;100.00
9257;BME280;4665;51.368;6.782;2023-06-10T03:44:46;101125.63;;;18.21;100.00
9257;BME280;4665;51.368;6.782;2023-06-10T03:47:12;101133.72;;;18.21;100.00
9257;BME280;4665;51.368;6.782;2023-06-10T03:49:38;101128.72;;;18.18;100.00
9257;BME280;4665;51.368;6.782;2023-06-10T03:52:06;101127.44;;;18.14;100.00
9257;BME280;4665;51.368;6.782;2023-06-10T03:54:31;101138.22;;;18.14;100.00
9257;BME280;4665;51.368;6.782;2023-06-10T03:56:59;101137.16;;;18.08;100.00
9257;BME280;4665;51.368;6.782;2023-06-10T03:59:25;101141.91;;;18.06;100.00
9257;BME280;4665;51.368;6.782;2023-06-10T04:01:51;101146.06;;;18.09;100.00
9257;BME280;4665;51.368;6.782;2023-06-10T04:04:16;101146.91;;;18.09;100.00
9257;BME280;4665;51.368;6.782;2023-06-10T04:06:42;101138.56;;;18.04;100.00
9257;BME280;4665;51.368;6.782;2023-06-10T04:09:09;101144.34;;;18.01;100.00
9257;BME280;4665;51.368;6.782;2023-06-10T04:11:35;101154.69;;;17.98;100.00
9257;BME280;4665;51.368;6.782;2023-06-10T04:14:01;101148.84;;;17.94;100.00
9257;BME280;4665;51.368;6.782;2023-06-10T04:16:27;101148.84;;;17.94;100.00
9257;BME280;4665;51.368;6.782;2023-06-10T04:18:52;101147.56;;;17.90;100.00
9257;BME280;4665;51.368;6.782;2023-06-10T04:21:18;101154.63;;;17.91;100.00
9257;BME280;4665;51.368;6.782;2023-06-10T04:23:43;101154.56;;;17.84;100.00
9257;BME280;4665;51.368;6.782;2023-06-10T04:26:09;101163.50;;;17.85;100.00
9257;BME280;4665;51.368;6.782;2023-06-10T04:28:36;101162.22;;;17.81;100.00
9257;BME280;4665;51.368;6.782;2023-06-10T04:31:01;101165.06;;;17.79;100.00
9257;BME280;4665;51.368;6.782;2023-06-10T04:33:29;101173.22;;;17.86;100.00
9257;BME280;4665;51.368;6.782;2023-06-10T04:35:54;101174.06;;;17.86;100.00
9257;BME280;4665;51.368;6.782;2023-06-10T04:38:20;101173.88;;;17.88;100.00
9257;BME280;4665;51.368;6.782;2023-06-10T04:40:46;101166.63;;;17.88;100.00
9257;BME280;4665;51.368;6.782;2023-06-10T04:43:11;101160.88;;;17.92;100.00
9257;BME280;4665;51.368;6.782;2023-06-10T04:45:38;101168.72;;;17.93;100.00
9257;BME280;4665;51.368;6.782;2023-06-10T04:48:03;101165.41;;;17.91;100.00
9257;BME280;4665;51.368;6.782;2023-06-10T04:50:29;101161.69;;;17.92;100.00
9257;BME280;4665;51.368;6.782;2023-06-10T04:52:54;101156.09;;;17.94;100.00
9257;BME280;4665;51.368;6.782;2023-06-10T04:55:22;101163.22;;;18.01;100.00
9257;BME280;4665;51.368;6.782;2023-06-10T04:57:48;101160.13;;;18.04;100.00
9257;BME280;4665;51.368;6.782;2023-06-10T05:00:13;101162.44;;;18.07;100.00
9257;BME280;4665;51.368;6.782;2023-06-10T05:02:39;101163.28;;;18.08;100.00
9257;BME280;4665;51.368;6.782;2023-06-10T05:05:05;101175.97;;;18.14;100.00
9257;BME280;4665;51.368;6.782;2023-06-10T05:07:31;101162.31;;;18.16;100.00
9257;BME280;4665;51.368;6.782;2023-06-10T05:09:56;101170.63;;;18.21;100.00
9257;BME280;4665;51.368;6.782;2023-06-10T05:12:22;101165.88;;;18.23;100.00
9257;BME280;4665;51.368;6.782;2023-06-10T05:14:47;101167.16;;;18.27;100.00
9257;BME280;4665;51.368;6.782;2023-06-10T05:17:13;101173.19;;;18.29;100.00
9257;BME280;4665;51.368;6.782;2023-06-10T05:19:38;101160.94;;;18.26;100.00
9257;BME280;4665;51.368;6.782;2023-06-10T05:22:04;101172.59;;;18.34;100.00
9257;BME280;4665;51.368;6.782;2023-06-10T05:24:30;101163.88;;;18.32;100.00
9257;BME280;4665;51.368;6.782;2023-06-10T05:26:55;101171.16;;;18.38;100.00
9257;BME280;4665;51.368;6.782;2023-06-10T05:29:21;101168.72;;;18.43;100.00
9257;BME280;4665;51.368;6.782;2023-06-10T05:31:46;101163.94;;;18.45;100.00
9257;BME280;4665;51.368;6.782;2023-06-10T05:34:12;101186.63;;;18.50;100.00
9257;BME280;4665;51.368;6.782;2023-06-10T05:36:37;101175.44;;;18.54;100.00
9257;BME280;4665;51.368;6.782;2023-06-10T05:39:03;101175.44;;;18.54;100.00
9257;BME280;4665;51.368;6.782;2023-06-10T05:41:28;101178.34;;;18.59;100.00
9257;BME280;4665;51.368;6.782;2023-06-10T05:43:54;101179.25;;;18.66;100.00
9257;BME280;4665;51.368;6.782;2023-06-10T05:46:19;101170.94;;;18.67;100.00
9257;BME280;4665;51.368;6.782;2023-06-10T05:48:45;101172.94;;;18.80;100.00
9257;BME280;4665;51.368;6.782;2023-06-10T05:51:11;101180.22;;;18.86;100.00
9257;BME280;4665;51.368;6.782;2023-06-10T05:53:36;101183.59;;;18.95;100.00
9257;BME280;4665;51.368;6.782;2023-06-10T05:56:02;101180.94;;;19.02;100.00
9257;BME280;4665;51.368;6.782;2023-06-10T05:58:27;101178.25;;;19.08;100.00
9257;BME280;4665;51.368;6.782;2023-06-10T06:00:52;101174.34;;;19.18;100.00
9257;BME280;4665;51.368;6.782;2023-06-10T06:03:18;101184.97;;;19.26;100.00
9257;BME280;4665;51.368;6.782;2023-06-10T06:05:44;101181.47;;;19.39;100.00
9257;BME280;4665;51.368;6.782;2023-06-10T06:08:11;101177.97;;;19.45;100.00
9257;BME280;4665;51.368;6.782;2023-06-10T06:10:38;101185.88;;;19.53;100.00
9257;BME280;4665;51.368;6.782;2023-06-10T06:13:04;101187.16;;;19.64;100.00
9257;BME280;4665;51.368;6.782;2023-06-10T06:15:29;101174.91;;;19.61;100.00
9257;BME280;4665;51.368;6.782;2023-06-10T06:17:54;101185.13;;;19.72;100.00
9257;BME280;4665;51.368;6.782;2023-06-10T06:20:22;101178.72;;;19.80;100.00
9257;BME280;4665;51.368;6.782;2023-06-10T06:22:47;101184.72;;;19.89;100.00
9257;BME280;4665;51.368;6.782;2023-06-10T06:25:13;101180.56;;;19.93;100.00
9257;BME280;4665;51.368;6.782;2023-06-10T06:27:38;101182.03;;;20.02;100.00
9257;BME280;4665;51.368;6.782;2023-06-10T06:30:04;101183.09;;;20.08;100.00
9257;BME280;4665;51.368;6.782;2023-06-10T06:32:30;101182.25;;;20.14;100.00
9257;BME280;4665;51.368;6.782;2023-06-10T06:34:56;101191.41;;;20.20;100.00
9257;BME280;4665;51.368;6.782;2023-06-10T06:37:22;101184.31;;;20.25;100.00
9257;BME280;4665;51.368;6.782;2023-06-10T06:39:53;101190.38;;;20.34;100.00
9257;BME280;4665;51.368;6.782;2023-06-10T06:42:19;101183.50;;;20.38;100.00
9257;BME280;4665;51.368;6.782;2023-06-10T06:44:44;101192.63;;;20.50;100.00
9257;BME280;4665;51.368;6.782;2023-06-10T06:47:10;101187.66;;;20.60;100.00
9257;BME280;4665;51.368;6.782;2023-06-10T06:49:36;101193.03;;;20.74;100.00
9257;BME280;4665;51.368;6.782;2023-06-10T06:52:02;101195.09;;;20.78;100.00
9257;BME280;4665;51.368;6.782;2023-06-10T06:54:27;101197.59;;;20.93;100.00
9257;BME280;4665;51.368;6.782;2023-06-10T06:56:53;101195.69;;;21.00;100.00
9257;BME280;4665;51.368;6.782;2023-06-10T06:59:18;101184.59;;;21.09;100.00
9257;BME280;4665;51.368;6.782;2023-06-10T07:01:47;101199.13;;;21.21;100.00
9257;BME280;4665;51.368;6.782;2023-06-10T07:04:15;101201.19;;;21.26;100.00
9257;BME280;4665;51.368;6.782;2023-06-10T07:06:40;101198.28;;;21.27;100.00
9257;BME280;4665;51.368;6.782;2023-06-10T07:09:07;101201.59;;;21.29;100.00
9257;BME280;4665;51.368;6.782;2023-06-10T07:11:34;101187.00;;;21.30;100.00
9257;BME280;4665;51.368;6.782;2023-06-10T07:14:00;101199.25;;;21.39;100.00
9257;BME280;4665;51.368;6.782;2023-06-10T07:16:25;101196.53;;;21.39;100.00
9257;BME280;4665;51.368;6.782;2023-06-10T07:18:52;101189.88;;;21.42;100.00
9257;BME280;4665;51.368;6.782;2023-06-10T07:21:17;101200.28;;;21.52;100.00
9257;BME280;4665;51.368;6.782;2023-06-10T07:23:43;101192.94;;;21.59;100.00
9257;BME280;4665;51.368;6.782;2023-06-10T07:26:10;101200.19;;;21.65;100.00
9257;BME280;4665;51.368;6.782;2023-06-10T07:28:37;101190.81;;;21.68;100.00
9257;BME280;4665;51.368;6.782;2023-06-10T07:31:03;101194.69;;;21.78;100.00
9257;BME280;4665;51.368;6.782;2023-06-10T07:33:28;101203.09;;;21.95;100.00
9257;BME280;4665;51.368;6.782;2023-06-10T07:35:54;101201.31;;;22.14;100.00
9257;BME280;4665;51.368;6.782;2023-06-10T07:38:19;101181.03;;;22.23;100.00
9257;BME280;4665;51.368;6.782;2023-06-10T07:40:45;101193.69;;;22.30;100.00
9257;BME280;4665;51.368;6.782;2023-06-10T07:43:11;101191.81;;;22.30;100.00
9257;BME280;4665;51.368;6.782;2023-06-10T07:45:36;101190.31;;;22.34;100.00
9257;BME280;4665;51.368;6.782;2023-06-10T07:48:02;101200.06;;;22.42;100.00
9257;BME280;4665;51.368;6.782;2023-06-10T07:50:27;101203.19;;;22.64;100.00
9257;BME280;4665;51.368;6.782;2023-06-10T07:52:53;101193.97;;;22.83;100.00
9257;BME280;4665;51.368;6.782;2023-06-10T07:55:18;101202.16;;;23.02;100.00
9257;BME280;4665;51.368;6.782;2023-06-10T07:57:44;101194.88;;;23.02;100.00
9257;BME280;4665;51.368;6.782;2023-06-10T08:00:10;101203.03;;;23.02;100.00
9257;BME280;4665;51.368;6.782;2023-06-10T08:02:35;101200.53;;;23.01;100.00
9257;BME280;4665;51.368;6.782;2023-06-10T08:05:01;101198.63;;;23.01;100.00
9257;BME280;4665;51.368;6.782;2023-06-10T08:07:27;101196.06;;;23.06;100.00
9257;BME280;4665;51.368;6.782;2023-06-10T08:09:52;101192.28;;;23.07;100.00
9257;BME280;4665;51.368;6.782;2023-06-10T08:12:18;101186.31;;;23.17;98.60
9257;BME280;4665;51.368;6.782;2023-06-10T08:14:43;101182.09;;;23.21;100.00
9257;BME280;4665;51.368;6.782;2023-06-10T08:17:09;101185.16;;;23.25;96.70
9257;BME280;4665;51.368;6.782;2023-06-10T08:19:34;101185.28;;;23.30;100.00
9257;BME280;4665;51.368;6.782;2023-06-10T08:22:00;101199.06;;;23.35;97.82
9257;BME280;4665;51.368;6.782;2023-06-10T08:24:25;101197.69;;;23.44;100.00
9257;BME280;4665;51.368;6.782;2023-06-10T08:26:51;101192.75;;;23.65;100.00
9257;BME280;4665;51.368;6.782;2023-06-10T08:29:16;101206.53;;;23.70;94.55
9257;BME280;4665;51.368;6.782;2023-06-10T08:31:43;101197.88;;;23.73;98.79
9257;BME280;4665;51.368;6.782;2023-06-10T08:34:09;101200.16;;;23.76;94.57
9257;BME280;4665;51.368;6.782;2023-06-10T08:36:34;101207.19;;;23.84;100.00
9257;BME280;4665;51.368;6.782;2023-06-10T08:39:01;101200.44;;;23.86;90.81
9257;BME280;4665;51.368;6.782;2023-06-10T08:41:28;101196.66;;;23.87;88.62
9257;BME280;4665;51.368;6.782;2023-06-10T08:43:56;101203.63;;;23.83;83.98
9257;BME280;4665;51.368;6.782;2023-06-10T08:46:25;101196.66;;;23.87;83.85
9257;BME280;4665;51.368;6.782;2023-06-10T08:48:54;101197.38;;;23.94;87.89
9257;BME280;4665;51.368;6.782;2023-06-10T08:51:22;101204.25;;;24.09;90.23
9257;BME280;4665;51.368;6.782;2023-06-10T08:54:15;101208.91;;;24.32;88.85
9257;BME280;4665;51.368;6.782;2023-06-10T08:56:44;101194.88;;;24.47;81.90
9257;BME280;4665;51.368;6.782;2023-06-10T08:59:11;101193.19;;;24.69;80.19
9257;BME280;4665;51.368;6.782;2023-06-10T09:01:37;101198.16;;;24.72;79.68
9257;BME280;4665;51.368;6.782;2023-06-10T09:04:03;101200.50;;;24.81;85.18
9257;BME280;4665;51.368;6.782;2023-06-10T09:06:32;101196.72;;;24.93;79.69
9257;BME280;4665;51.368;6.782;2023-06-10T09:08:59;101198.31;;;25.18;76.76
9257;BME280;4665;51.368;6.782;2023-06-10T09:11:24;101188.84;;;25.21;72.98
9257;BME280;4665;51.368;6.782;2023-06-10T09:13:50;101199.38;;;25.17;76.48
9257;BME280;4665;51.368;6.782;2023-06-10T09:16:16;101199.00;;;25.13;75.87
9257;BME280;4665;51.368;6.782;2023-06-10T09:18:42;101191.59;;;25.09;72.19
9257;BME280;4665;51.368;6.782;2023-06-10T09:21:08;101193.47;;;25.08;74.90
9257;BME280;4665;51.368;6.782;2023-06-10T09:23:34;101188.59;;;25.10;76.34
9257;BME280;4665;51.368;6.782;2023-06-10T09:26:00;101192.63;;;25.19;81.38
9257;BME280;4665;51.368;6.782;2023-06-10T09:28:30;101193.44;;;25.20;78.26
9257;BME280;4665;51.368;6.782;2023-06-10T09:31:05;101182.81;;;25.18;70.85
9257;BME280;4665;51.368;6.782;2023-06-10T09:33:32;101195.56;;;25.30;77.39
9257;BME280;4665;51.368;6.782;2023-06-10T09:36:01;101190.22;;;25.35;75.21
9257;BME280;4665;51.368;6.782;2023-06-10T09:38:34;101184.44;;;25.48;71.15
9257;BME280;4665;51.368;6.782;2023-06-10T09:41:00;101180.16;;;25.52;76.73
9257;BME280;4665;51.368;6.782;2023-06-10T09:46:05;101188.06;;;25.66;71.75
9257;BME280;4665;51.368;6.782;2023-06-10T09:48:35;101186.41;;;25.65;66.89
9257;BME280;4665;51.368;6.782;2023-06-10T09:51:09;101184.97;;;25.62;68.16
9257;BME280;4665;51.368;6.782;2023-06-10T09:53:35;101173.31;;;25.67;69.92
9257;BME280;4665;51.368;6.782;2023-06-10T09:56:01;101177.22;;;25.71;69.46
9257;BME280;4665;51.368;6.782;2023-06-10T09:58:39;101171.31;;;25.74;68.40
9257;BME280;4665;51.368;6.782;2023-06-10T10:01:11;101176.06;;;25.95;72.11
9257;BME280;4665;51.368;6.782;2023-06-10T10:03:45;101170.84;;;25.94;67.84
9257;BME280;4665;51.368;6.782;2023-06-10T10:06:12;101167.59;;;25.97;69.43
9257;BME280;4665;51.368;6.782;2023-06-10T10:08:39;101170.09;;;25.98;68.16
9257;BME280;4665;51.368;6.782;2023-06-10T10:11:06;101166.38;;;26.05;67.88
9257;BME280;4665;51.368;6.782;2023-06-10T10:13:35;101159.34;;;26.09;66.63
9257;BME280;4665;51.368;6.782;2023-06-10T10:16:09;101167.53;;;26.26;70.10
9257;BME280;4665;51.368;6.782;2023-06-10T10:18:39;101162.88;;;26.26;68.40
9257;BME280;4665;51.368;6.782;2023-06-10T10:21:07;101158.81;;;26.29;67.76
9257;BME280;4665;51.368;6.782;2023-06-10T10:24:07;101160.28;;;26.36;67.11
9257;BME280;4665;51.368;6.782;2023-06-10T10:26:35;101162.84;;;26.43;65.43
9257;BME280;4665;51.368;6.782;2023-06-10T10:29:30;101164.84;;;26.64;65.83
9257;BME280;4665;51.368;6.782;2023-06-10T10:31:59;101159.16;;;26.71;65.93
9257;BME280;4665;51.368;6.782;2023-06-10T10:35:19;101158.78;;;26.84;63.25
9257;BME280;4665;51.368;6.782;2023-06-10T10:37:36;101161.91;;;26.93;57.43
9257;BME280;4665;51.368;6.782;2023-06-10T10:40:02;101166.09;;;27.01;62.69
9257;BME280;4665;51.368;6.782;2023-06-10T10:42:29;101165.09;;;27.07;58.70
9257;BME280;4665;51.368;6.782;2023-06-10T10:44:56;101154.16;;;27.07;59.73
9257;BME280;4665;51.368;6.782;2023-06-10T10:47:22;101150.78;;;27.00;58.63
9257;BME280;4665;51.368;6.782;2023-06-10T10:49:51;101147.53;;;27.03;58.42
9257;BME280;4665;51.368;6.782;2023-06-10T10:52:20;101147.41;;;27.15;62.30
9257;BME280;4665;51.368;6.782;2023-06-10T10:54:46;101151.47;;;27.12;58.40
9257;BME280;4665;51.368;6.782;2023-06-10T10:57:18;101136.16;;;27.11;58.32
9257;BME280;4665;51.368;6.782;2023-06-10T11:02:43;101142.09;;;27.25;59.88
9257;BME280;4665;51.368;6.782;2023-06-10T11:05:10;101136.88;;;27.23;58.48
9257;BME280;4665;51.368;6.782;2023-06-10T11:07:37;101127.31;;;27.26;58.51
9257;BME280;4665;51.368;6.782;2023-06-10T11:10:08;101136.13;;;27.33;56.58
9257;BME280;4665;51.368;6.782;2023-06-10T11:15:06;101135.94;;;27.40;57.62
9257;BME280;4665;51.368;6.782;2023-06-10T11:17:31;101127.13;;;27.33;54.99
9257;BME280;4665;51.368;6.782;2023-06-10T11:19:58;101125.78;;;27.35;56.79
9257;BME280;4665;51.368;6.782;2023-06-10T11:22:24;101118.94;;;27.38;57.42
9257;BME280;4665;51.368;6.782;2023-06-10T11:24:50;101122.91;;;27.52;57.14
9257;BME280;4665;51.368;6.782;2023-06-10T11:27:23;101117.50;;;27.57;54.17
9257;BME280;4665;51.368;6.782;2023-06-10T11:30:17;101116.19;;;27.65;53.51
9257;BME280;4665;51.368;6.782;2023-06-10T11:32:46;101121.41;;;27.66;51.02
9257;BME280;4665;51.368;6.782;2023-06-10T11:35:18;101125.78;;;27.67;52.13
9257;BME280;4665;51.368;6.782;2023-06-10T11:37:43;101113.75;;;27.68;50.43
9257;BME280;4665;51.368;6.782;2023-06-10T11:40:10;101110.75;;;27.70;51.27
9257;BME280;4665;51.368;6.782;2023-06-10T11:42:40;101111.91;;;27.74;52.13
9257;BME280;4665;51.368;6.782;2023-06-10T11:45:06;101111.19;;;27.84;53.65
9257;BME280;4665;51.368;6.782;2023-06-10T11:47:33;101115.31;;;27.91;51.80
9257;BME280;4665;51.368;6.782;2023-06-10T11:49:59;101107.97;;;27.92;49.86
9257;BME280;4665;51.368;6.782;2023-06-10T11:52:31;101118.97;;;28.02;47.20
9257;BME280;4665;51.368;6.782;2023-06-10T11:54:58;101111.63;;;28.08;45.47
9257;BME280;4665;51.368;6.782;2023-06-10T11:57:24;101106.66;;;28.05;46.16
9257;BME280;4665;51.368;6.782;2023-06-10T11:59:49;101106.97;;;28.08;48.48
9257;BME280;4665;51.368;6.782;2023-06-10T12:02:18;101108.59;;;28.04;47.95
9257;BME280;4665;51.368;6.782;2023-06-10T12:04:44;101104.75;;;28.05;47.28
9257;BME280;4665;51.368;6.782;2023-06-10T12:07:17;101110.50;;;28.04;47.62
9257;BME280;4665;51.368;6.782;2023-06-10T12:09:42;101097.66;;;28.09;45.59
9257;BME280;4665;51.368;6.782;2023-06-10T12:12:08;101097.41;;;28.11;45.75
9257;BME280;4665;51.368;6.782;2023-06-10T12:17:23;101096.66;;;28.26;46.86
9257;BME280;4665;51.368;6.782;2023-06-10T12:19:49;101096.66;;;28.26;48.20
9257;BME280;4665;51.368;6.782;2023-06-10T12:22:15;101080.50;;;28.24;45.04
9257;BME280;4665;51.368;6.782;2023-06-10T12:24:58;101095.53;;;28.22;44.52
9257;BME280;4665;51.368;6.782;2023-06-10T12:27:31;101087.88;;;28.24;47.04
9257;BME280;4665;51.368;6.782;2023-06-10T12:29:58;101082.41;;;28.24;48.16
9257;BME280;4665;51.368;6.782;2023-06-10T12:32:40;101090.94;;;28.27;44.48
9257;BME280;4665;51.368;6.782;2023-06-10T12:35:07;101092.84;;;28.27;45.61
9257;BME280;4665;51.368;6.782;2023-06-10T12:37:32;101081.06;;;28.26;46.42
9257;BME280;4665;51.368;6.782;2023-06-10T12:40:05;101088.44;;;28.26;44.90
9257;BME280;4665;51.368;6.782;2023-06-10T12:42:39;101085.72;;;28.26;46.72
9257;BME280;4665;51.368;6.782;2023-06-10T12:45:05;101079.69;;;28.29;46.93
9257;BME280;4665;51.368;6.782;2023-06-10T12:47:34;101077.84;;;28.45;46.89
9257;BME280;4665;51.368;6.782;2023-06-10T12:50:09;101076.19;;;28.39;47.53
9257;BME280;4665;51.368;6.782;2023-06-10T12:52:37;101087.16;;;28.39;44.68
9257;BME280;4665;51.368;6.782;2023-06-10T12:55:02;101088.78;;;28.35;44.31
9257;BME280;4665;51.368;6.782;2023-06-10T12:57:29;101083.28;;;28.29;44.87
9257;BME280;4665;51.368;6.782;2023-06-10T12:59:55;101080.25;;;28.31;43.11
9257;BME280;4665;51.368;6.782;2023-06-10T13:02:25;101081.91;;;28.27;43.59
9257;BME280;4665;51.368;6.782;2023-06-10T13:04:51;101081.06;;;28.26;44.27
9257;BME280;4665;51.368;6.782;2023-06-10T13:07:17;101081.91;;;28.27;43.83
9257;BME280;4665;51.368;6.782;2023-06-10T13:09:43;101069.03;;;28.27;44.80
9257;BME280;4665;51.368;6.782;2023-06-10T13:12:09;101075.63;;;28.31;46.79
9257;BME280;4665;51.368;6.782;2023-06-10T13:14:36;101072.09;;;28.36;47.66
9257;BME280;4665;51.368;6.782;2023-06-10T13:17:05;101075.91;;;28.35;45.02
9257;BME280;4665;51.368;6.782;2023-06-10T13:19:33;101068.81;;;28.44;47.40
9257;BME280;4665;51.368;6.782;2023-06-10T13:21:59;101068.31;;;28.47;46.83